createdAt,value
2024-05-09T00:01:30.575Z,99678.65
2024-05-09T00:03:33.164Z,99672.52
2024-05-09T00:05:36.666Z,99672.32
2024-05-09T00:07:39.389Z,99670.13
2024-05-09T00:09:41.798Z,99673.20
2024-05-09T00:11:44.299Z,99671.88
2024-05-09T00:13:47.311Z,99677.28
2024-05-09T00:15:50.257Z,99677.60
2024-05-09T00:17:53.571Z,99678.60
2024-05-09T00:19:56.172Z,99679.27
2024-05-09T00:21:58.620Z,99680.30
2024-05-09T00:24:01.136Z,99678.05
2024-05-09T00:26:03.918Z,99678.04
2024-05-09T00:28:06.592Z,99678.89
2024-05-09T00:30:14.354Z,99681.42
2024-05-09T00:32:20.201Z,99678.99
2024-05-09T00:34:23.708Z,99678.41
2024-05-09T00:36:26.267Z,99675.19
2024-05-09T00:38:28.680Z,99673.38
2024-05-09T00:40:39.898Z,99674.50
2024-05-09T00:42:47.148Z,99678.08
2024-05-09T00:44:49.542Z,99681.37
2024-05-09T00:46:55.148Z,99680.02
2024-05-09T00:48:57.915Z,99680.09
2024-05-09T00:51:01.434Z,99681.01
2024-05-09T00:53:05.688Z,99682.86
2024-05-09T00:55:08.459Z,99683.55
2024-05-09T00:57:10.904Z,99685.71
2024-05-09T00:59:13.557Z,99684.36
2024-05-09T01:01:21.044Z,99684.03
2024-05-09T01:03:23.838Z,99687.70
2024-05-09T01:05:26.590Z,99686.95
2024-05-09T01:07:29.036Z,99686.76
2024-05-09T01:09:31.535Z,99685.63
2024-05-09T01:11:38.726Z,99684.77
2024-05-09T01:13:41.377Z,99678.36
2024-05-09T01:15:44.309Z,99675.83
2024-05-09T01:17:47.225Z,99672.94
2024-05-09T01:19:49.831Z,99675.64
2024-05-09T01:21:52.257Z,99680.30
2024-05-09T01:23:54.869Z,99681.03
2024-05-09T01:25:57.510Z,99682.66
2024-05-09T01:28:00.069Z,99685.10
2024-05-09T01:30:04.067Z,99684.19
2024-05-09T01:32:09.550Z,99686.73
2024-05-09T01:34:12.180Z,99685.53
2024-05-09T01:36:14.620Z,99684.59
2024-05-09T01:38:19.631Z,99683.52
2024-05-09T01:40:29.107Z,99684.06
2024-05-09T01:42:39.288Z,99684.61
2024-05-09T01:44:43.243Z,99684.66
2024-05-09T01:46:45.913Z,99682.77
2024-05-09T01:48:48.518Z,99682.79
2024-05-09T01:50:51.063Z,99682.98
2024-05-09T01:52:53.813Z,99682.73
2024-05-09T01:54:56.806Z,99682.27
2024-05-09T01:56:59.246Z,99682.55
2024-05-09T01:59:01.863Z,99684.24
2024-05-09T02:01:04.626Z,99684.45
2024-05-09T02:03:13.917Z,99684.53
2024-05-09T02:05:19.355Z,99684.27
2024-05-09T02:07:22.056Z,99683.89
2024-05-09T02:09:25.585Z,99684.20
2024-05-09T02:11:28.352Z,99681.63
2024-05-09T02:13:30.890Z,99684.48
2024-05-09T02:15:33.229Z,99679.98
2024-05-09T02:17:35.770Z,99675.48
2024-05-09T02:19:38.419Z,99673.70
2024-05-09T02:21:41.165Z,99672.89
2024-05-09T02:23:43.615Z,99671.39
2024-05-09T02:25:46.141Z,99664.70
2024-05-09T02:27:48.590Z,99666.30
2024-05-09T02:29:51.187Z,99667.90
2024-05-09T02:31:54.126Z,99668.30
2024-05-09T02:33:57.327Z,99668.37
2024-05-09T02:35:59.773Z,99672.54
2024-05-09T02:38:02.378Z,99673.19
2024-05-09T02:40:05.805Z,99672.45
2024-05-09T02:42:11.764Z,99670.83
2024-05-09T02:44:14.445Z,99672.05
2024-05-09T02:46:16.993Z,99669.83
2024-05-09T02:48:19.644Z,99666.61
2024-05-09T02:50:29.958Z,99668.13
2024-05-09T02:52:39.400Z,99668.83
2024-05-09T02:54:41.847Z,99669.79
2024-05-09T02:56:44.285Z,99671.23
2024-05-09T02:58:46.684Z,99668.59
2024-05-09T03:00:49.430Z,99670.36
2024-05-09T03:02:52.168Z,99670.46
2024-05-09T03:04:54.801Z,99671.23
2024-05-09T03:06:57.221Z,99674.52
2024-05-09T03:09:00.726Z,99673.37
2024-05-09T03:11:03.363Z,99671.55
2024-05-09T03:13:11.406Z,99673.00
2024-05-09T03:15:13.950Z,99675.95
2024-05-09T03:17:16.434Z,99673.35
2024-05-09T03:19:19.119Z,99677.90
2024-05-09T03:21:21.770Z,99676.17
2024-05-09T03:23:24.189Z,99674.77
2024-05-09T03:25:26.673Z,99670.48
2024-05-09T03:27:29.344Z,99669.20
2024-05-09T03:29:31.941Z,99667.50
2024-05-09T03:31:34.483Z,99671.52
2024-05-09T03:33:38.090Z,99666.52
2024-05-09T03:35:40.852Z,99662.52
2024-05-09T03:37:43.341Z,99664.45
2024-05-09T03:39:45.756Z,99661.48
2024-05-09T03:41:48.154Z,99659.88
2024-05-09T03:43:51.099Z,99657.19
2024-05-09T03:45:53.750Z,99659.91
2024-05-09T03:47:56.456Z,99659.91
2024-05-09T03:49:59.204Z,99662.46
2024-05-09T03:52:05.080Z,99662.61
2024-05-09T03:54:07.685Z,99662.70
2024-05-09T03:56:10.812Z,99665.02
2024-05-09T03:58:14.249Z,99673.29
2024-05-09T04:00:22.588Z,99673.69
2024-05-09T04:02:33.158Z,99672.33
2024-05-09T04:04:35.724Z,99670.56
2024-05-09T04:06:40.108Z,99668.11
2024-05-09T04:08:42.585Z,99667.31
2024-05-09T04:10:45.487Z,99667.71
2024-05-09T04:12:48.032Z,99672.07
2024-05-09T04:14:50.856Z,99672.45
2024-05-09T04:16:53.626Z,99679.38
2024-05-09T04:18:56.273Z,99680.44
2024-05-09T04:20:59.253Z,99684.20
2024-05-09T04:23:01.890Z,99685.98
2024-05-09T04:25:04.682Z,99683.81
2024-05-09T04:27:07.190Z,99684.57
2024-05-09T04:29:09.849Z,99679.73
2024-05-09T04:31:12.629Z,99681.05
2024-05-09T04:33:15.579Z,99676.17
2024-05-09T04:35:20.088Z,99680.84
2024-05-09T04:37:22.549Z,99685.65
2024-05-09T04:39:24.999Z,99685.45
2024-05-09T04:41:27.533Z,99690.58
2024-05-09T04:43:30.230Z,99691.25
2024-05-09T04:45:32.789Z,99691.30
2024-05-09T04:47:35.447Z,99693.27
2024-05-09T04:49:38.043Z,99695.88
2024-05-09T04:51:43.618Z,99698.33
2024-05-09T04:53:46.285Z,99698.30
2024-05-09T04:55:49.997Z,99697.40
2024-05-09T04:57:52.607Z,99695.98
2024-05-09T04:59:55.577Z,99700.52
2024-05-09T05:01:58.132Z,99700.48
2024-05-09T05:04:00.998Z,99701.03
2024-05-09T05:06:04.090Z,99701.36
2024-05-09T05:08:30.313Z,99704.59
2024-05-09T05:10:36.302Z,99704.69
2024-05-09T05:12:58.340Z,99706.09
2024-05-09T05:15:01.286Z,99708.26
2024-05-09T05:17:04.102Z,99705.61
2024-05-09T05:19:09.016Z,99709.41
2024-05-09T05:21:13.351Z,99710.51
2024-05-09T05:23:21.650Z,99709.75
2024-05-09T05:25:25.310Z,99716.11
2024-05-09T05:27:27.726Z,99717.13
2024-05-09T05:29:30.220Z,99717.06
2024-05-09T05:31:32.718Z,99718.92
2024-05-09T05:33:35.487Z,99720.27
2024-05-09T05:35:38.372Z,99722.55
2024-05-09T05:37:40.911Z,99726.56
2024-05-09T05:39:43.346Z,99722.11
2024-05-09T05:41:45.760Z,99718.09
2024-05-09T05:43:48.188Z,99715.24
2024-05-09T05:45:50.632Z,99713.73
2024-05-09T05:47:54.316Z,99713.40
2024-05-09T05:49:57.262Z,99713.23
2024-05-09T05:51:59.912Z,99712.70
2024-05-09T05:54:02.458Z,99713.91
2024-05-09T05:56:05.349Z,99711.44
2024-05-09T05:58:12.132Z,99709.00
2024-05-09T06:00:21.649Z,99713.09
2024-05-09T06:02:31.991Z,99712.08
2024-05-09T06:04:34.631Z,99715.98
2024-05-09T06:06:37.027Z,99712.74
2024-05-09T06:08:39.690Z,99713.54
2024-05-09T06:10:42.620Z,99716.09
2024-05-09T06:12:45.286Z,99718.36
2024-05-09T06:14:47.820Z,99719.79
2024-05-09T06:16:50.877Z,99720.42
2024-05-09T06:18:53.574Z,99722.03
2024-05-09T06:20:56.400Z,99724.84
2024-05-09T06:22:58.889Z,99726.88
2024-05-09T06:25:01.441Z,99723.38
2024-05-09T06:27:06.209Z,99719.66
2024-05-09T06:29:08.957Z,99720.73
2024-05-09T06:31:12.196Z,99720.47
2024-05-09T06:33:16.160Z,99718.83
2024-05-09T06:35:19.449Z,99717.46
2024-05-09T06:37:22.016Z,99715.09
2024-05-09T06:39:24.510Z,99712.05
2024-05-09T06:41:27.075Z,99712.89
2024-05-09T06:43:29.664Z,99710.23
2024-05-09T06:45:32.410Z,99701.30
2024-05-09T06:47:35.000Z,99699.99
2024-05-09T06:49:37.768Z,99696.60
2024-05-09T06:51:40.814Z,99700.17
2024-05-09T06:53:43.336Z,99698.13
2024-05-09T06:55:45.854Z,99700.02
2024-05-09T06:57:48.458Z,99701.17
2024-05-09T06:59:50.902Z,99703.95
2024-05-09T07:01:53.320Z,99708.24
2024-05-09T07:04:07.713Z,99706.54
2024-05-09T07:06:10.713Z,99709.14
2024-05-09T07:08:13.450Z,99705.91
2024-05-09T07:10:22.043Z,99708.64
2024-05-09T07:12:31.322Z,99709.84
2024-05-09T07:14:34.742Z,99710.06
2024-05-09T07:16:39.440Z,99711.58
2024-05-09T07:18:41.987Z,99705.04
2024-05-09T07:20:45.241Z,99705.81
2024-05-09T07:22:47.853Z,99705.85
2024-05-09T07:24:52.896Z,99706.77
2024-05-09T07:26:56.365Z,99708.04
2024-05-09T07:28:58.982Z,99706.63
2024-05-09T07:31:01.582Z,99703.02
2024-05-09T07:33:04.721Z,99702.48
2024-05-09T07:35:08.066Z,99704.07
2024-05-09T07:37:13.060Z,99706.89
2024-05-09T07:39:15.476Z,99701.93
2024-05-09T07:41:18.003Z,99703.95
2024-05-09T07:43:20.550Z,99696.37
2024-05-09T07:45:41.663Z,99692.20
2024-05-09T07:49:12.969Z,99688.23
2024-05-09T07:53:29.849Z,99688.75
2024-05-09T07:54:38.567Z,99683.39
2024-05-09T07:56:41.791Z,99683.69
2024-05-09T07:58:45.531Z,99679.98
2024-05-09T08:00:48.182Z,99676.22
2024-05-09T08:02:50.677Z,99676.70
2024-05-09T08:04:53.282Z,99672.00
2024-05-09T08:06:55.822Z,99673.17
2024-05-09T08:09:00.874Z,99676.38
2024-05-09T08:11:06.330Z,99675.21
2024-05-09T08:13:08.920Z,99682.36
2024-05-09T08:15:11.574Z,99678.22
2024-05-09T08:17:14.085Z,99676.24
2024-05-09T08:19:16.592Z,99675.10
2024-05-09T08:21:19.420Z,99671.88
2024-05-09T08:23:23.437Z,99667.29
2024-05-09T08:25:25.872Z,99665.52
2024-05-09T08:27:28.417Z,99668.71
2024-05-09T08:29:30.969Z,99669.80
2024-05-09T08:31:37.866Z,99671.30
2024-05-09T08:33:46.229Z,99674.13
2024-05-09T08:35:49.874Z,99668.95
2024-05-09T08:37:53.262Z,99670.12
2024-05-09T08:39:56.147Z,99666.91
2024-05-09T08:42:01.752Z,99665.15
2024-05-09T08:44:04.261Z,99667.41
2024-05-09T08:46:07.854Z,99667.52
2024-05-09T08:48:12.955Z,99666.80
2024-05-09T08:50:28.754Z,99665.58
2024-05-09T08:52:40.007Z,99669.89
2024-05-09T08:54:42.439Z,99667.96
2024-05-09T08:56:47.912Z,99668.99
2024-05-09T08:58:53.921Z,99661.18
2024-05-09T09:00:57.738Z,99659.89
2024-05-09T09:03:02.700Z,99658.87
2024-05-09T09:05:11.156Z,99654.83
2024-05-09T09:07:14.656Z,99655.95
2024-05-09T09:09:17.624Z,99655.96
2024-05-09T09:11:20.138Z,99654.24
2024-05-09T09:13:22.785Z,99653.04
2024-05-09T09:15:25.262Z,99651.34
2024-05-09T09:17:27.725Z,99652.42
2024-05-09T09:19:30.661Z,99648.20
2024-05-09T09:21:33.313Z,99647.16
2024-05-09T09:23:35.812Z,99646.13
2024-05-09T09:25:41.962Z,99645.27
2024-05-09T09:27:44.408Z,99647.40
2024-05-09T09:29:46.803Z,99645.62
2024-05-09T09:32:06.603Z,99645.30
2024-05-09T09:34:09.219Z,99641.64
2024-05-09T09:36:14.748Z,99640.96
2024-05-09T09:38:22.752Z,99635.66
2024-05-09T09:40:32.190Z,99638.89
2024-05-09T09:42:37.695Z,99635.11
2024-05-09T09:44:42.292Z,99638.54
2024-05-09T09:46:49.801Z,99635.51
2024-05-09T09:48:53.301Z,99633.73
2024-05-09T09:50:57.533Z,99633.17
2024-05-09T09:53:01.061Z,99634.04
2024-05-09T09:55:04.386Z,99631.80
2024-05-09T09:57:07.491Z,99631.88
2024-05-09T09:59:13.199Z,99635.92
2024-05-09T10:01:15.894Z,99634.34
2024-05-09T10:03:18.601Z,99634.41
2024-05-09T10:05:23.146Z,99634.91
2024-05-09T10:07:27.448Z,99630.80
2024-05-09T10:09:30.398Z,99629.84
2024-05-09T10:11:39.523Z,99628.71
2024-05-09T10:13:44.872Z,99622.86
2024-05-09T10:15:51.623Z,99621.04
2024-05-09T10:17:54.514Z,99619.05
2024-05-09T10:20:14.537Z,99616.98
2024-05-09T10:22:30.829Z,99612.92
2024-05-09T10:24:51.161Z,99615.51
2024-05-09T10:26:56.415Z,99616.14
2024-05-09T10:28:59.128Z,99614.90
2024-05-09T10:31:11.707Z,99614.63
2024-05-09T10:33:19.787Z,99607.59
2024-05-09T10:35:22.505Z,99604.66
2024-05-09T10:37:27.711Z,99602.94
2024-05-09T10:39:36.849Z,99602.34
2024-05-09T10:41:41.651Z,99599.40
2024-05-09T10:43:44.535Z,99596.44
2024-05-09T10:45:47.559Z,99598.62
2024-05-09T10:47:51.055Z,99594.70
2024-05-09T10:49:54.022Z,99593.77
2024-05-09T10:51:56.498Z,99589.23
2024-05-09T10:53:59.003Z,99584.88
2024-05-09T10:56:01.884Z,99585.52
2024-05-09T10:58:05.125Z,99584.55
2024-05-09T11:00:15.566Z,99586.50
2024-05-09T11:02:21.688Z,99586.99
2024-05-09T11:04:24.601Z,99582.41
2024-05-09T11:06:27.255Z,99579.67
2024-05-09T11:08:32.251Z,99576.66
2024-05-09T11:10:35.017Z,99573.27
2024-05-09T11:12:37.727Z,99567.33
2024-05-09T11:14:40.328Z,99570.09
2024-05-09T11:16:42.902Z,99564.54
2024-05-09T11:18:58.839Z,99563.77
2024-05-09T11:21:01.764Z,99564.36
2024-05-09T11:23:05.589Z,99561.61
2024-05-09T11:25:08.850Z,99562.93
2024-05-09T11:27:12.535Z,99564.01
2024-05-09T11:29:18.709Z,99566.73
2024-05-09T11:31:22.373Z,99562.00
2024-05-09T11:33:24.900Z,99561.16
2024-05-09T11:35:29.078Z,99557.30
2024-05-09T11:37:35.283Z,99555.75
2024-05-09T11:39:38.896Z,99546.96
2024-05-09T11:41:41.396Z,99547.05
2024-05-09T11:43:44.305Z,99545.09
2024-05-09T11:45:48.500Z,99544.98
2024-05-09T11:47:53.437Z,99540.98
2024-05-09T11:49:56.525Z,99538.70
2024-05-09T11:51:59.082Z,99539.95
2024-05-09T11:54:01.889Z,99536.26
2024-05-09T11:56:04.895Z,99532.06
2024-05-09T11:58:08.125Z,99529.52
2024-05-09T12:00:14.924Z,99531.96
2024-05-09T12:02:20.652Z,99529.45
2024-05-09T12:04:23.376Z,99524.89
2024-05-09T12:06:26.062Z,99520.55
2024-05-09T12:08:28.495Z,99520.84
2024-05-09T12:10:34.400Z,99517.76
2024-05-09T12:12:38.593Z,99515.71
2024-05-09T12:14:41.102Z,99510.37
2024-05-09T12:16:43.942Z,99509.55
2024-05-09T12:18:46.571Z,99509.52
2024-05-09T12:20:49.325Z,99506.36
2024-05-09T12:22:51.838Z,99505.27
2024-05-09T12:24:54.458Z,99501.11
2024-05-09T12:26:57.182Z,99500.94
2024-05-09T12:28:59.572Z,99501.15
2024-05-09T12:31:02.183Z,99495.02
2024-05-09T12:33:05.139Z,99493.85
2024-05-09T12:35:07.706Z,99493.20
2024-05-09T12:37:10.457Z,99493.63
2024-05-09T12:39:12.936Z,99490.45
2024-05-09T12:41:15.721Z,99487.32
2024-05-09T12:43:18.566Z,99492.18
2024-05-09T12:45:21.153Z,99488.98
2024-05-09T12:47:23.682Z,99490.52
2024-05-09T12:49:26.430Z,99487.15
2024-05-09T12:51:30.916Z,99485.12
2024-05-09T12:53:33.455Z,99483.00
2024-05-09T12:55:44.127Z,99484.84
2024-05-09T12:57:51.836Z,99476.60
2024-05-09T12:59:55.156Z,99475.30
2024-05-09T13:02:00.418Z,99476.54
2024-05-09T13:04:04.024Z,99473.92
2024-05-09T13:06:06.729Z,99471.33
2024-05-09T13:08:09.483Z,99466.19
2024-05-09T13:10:16.273Z,99465.98
2024-05-09T13:12:24.296Z,99463.17
2024-05-09T13:14:27.120Z,99462.74
2024-05-09T13:16:30.196Z,99460.28
2024-05-09T13:18:33.666Z,99458.83
2024-05-09T13:20:37.142Z,99458.89
2024-05-09T13:22:40.365Z,99455.73
2024-05-09T13:24:42.960Z,99453.27
2024-05-09T13:26:45.539Z,99450.19
2024-05-09T13:28:48.058Z,99447.19
2024-05-09T13:30:50.551Z,99449.28
2024-05-09T13:32:54.807Z,99445.37
2024-05-09T13:34:57.377Z,99441.30
2024-05-09T13:36:59.832Z,99440.83
2024-05-09T13:39:03.595Z,99436.31
2024-05-09T13:41:05.929Z,99435.11
2024-05-09T13:43:08.366Z,99431.21
2024-05-09T13:45:11.127Z,99430.16
2024-05-09T13:47:14.653Z,99426.23
2024-05-09T13:49:17.646Z,99422.31
2024-05-09T13:51:20.483Z,99423.52
2024-05-09T13:53:23.766Z,99426.44
2024-05-09T13:55:26.259Z,99423.56
2024-05-09T13:57:28.791Z,99420.85
2024-05-09T13:59:32.123Z,99418.24
2024-05-09T14:01:34.689Z,99415.70
2024-05-09T14:03:37.460Z,99407.68
2024-05-09T14:05:40.279Z,99407.25
2024-05-09T14:07:43.820Z,99402.21
2024-05-09T14:09:47.060Z,99401.91
2024-05-09T14:11:49.846Z,99400.66
2024-05-09T14:13:52.434Z,99399.34
2024-05-09T14:15:55.211Z,99397.43
2024-05-09T14:17:57.770Z,99394.89
2024-05-09T14:20:00.630Z,99394.88
2024-05-09T14:22:05.958Z,99386.59
2024-05-09T14:24:08.407Z,99383.20
2024-05-09T14:26:10.984Z,99381.06
2024-05-09T14:28:13.693Z,99381.05
2024-05-09T14:30:22.961Z,99373.55
2024-05-09T14:32:33.268Z,99374.14
2024-05-09T14:34:36.000Z,99372.59
2024-05-09T14:36:38.748Z,99370.48
2024-05-09T14:38:41.512Z,99367.62
2024-05-09T14:40:44.631Z,99367.32
2024-05-09T14:42:47.224Z,99364.64
2024-05-09T14:44:49.857Z,99360.39
2024-05-09T14:46:52.558Z,99357.33
2024-05-09T14:48:55.328Z,99355.95
2024-05-09T14:50:57.898Z,99352.73
2024-05-09T14:53:00.288Z,99353.38
2024-05-09T14:55:02.878Z,99348.09
2024-05-09T14:57:05.387Z,99344.38
2024-05-09T14:59:08.838Z,99343.45
2024-05-09T15:01:11.383Z,99340.02
2024-05-09T15:03:14.022Z,99344.19
2024-05-09T15:05:16.564Z,99341.48
2024-05-09T15:07:19.148Z,99337.95
2024-05-09T15:09:22.021Z,99334.70
2024-05-09T15:11:25.079Z,99338.51
2024-05-09T15:13:27.847Z,99336.06
2024-05-09T15:15:30.585Z,99337.66
2024-05-09T15:17:33.151Z,99337.21
2024-05-09T15:19:36.284Z,99339.27
2024-05-09T15:21:38.912Z,99333.63
2024-05-09T15:23:41.467Z,99332.52
2024-05-09T15:25:44.787Z,99331.23
2024-05-09T15:27:47.314Z,99327.66
2024-05-09T15:29:49.851Z,99328.91
2024-05-09T15:31:53.332Z,99329.56
2024-05-09T15:33:56.114Z,99327.39
2024-05-09T15:35:58.617Z,99323.65
2024-05-09T15:38:02.478Z,99322.88
2024-05-09T15:40:07.504Z,99324.13
2024-05-09T15:42:12.535Z,99320.59
2024-05-09T15:44:15.178Z,99319.14
2024-05-09T15:46:18.218Z,99318.77
2024-05-09T15:48:21.130Z,99315.28
2024-05-09T15:50:35.098Z,99315.36
2024-05-09T15:52:41.651Z,99314.34
2024-05-09T15:54:44.243Z,99313.52
2024-05-09T15:56:50.774Z,99312.42
2024-05-09T15:58:53.375Z,99311.73
2024-05-09T16:00:56.000Z,99307.85
2024-05-09T16:02:59.787Z,99303.73
2024-05-09T16:05:03.955Z,99303.60
2024-05-09T16:07:06.527Z,99300.98
2024-05-09T16:09:09.105Z,99300.70
2024-05-09T16:11:12.992Z,99302.98
2024-05-09T16:13:16.635Z,99298.98
2024-05-09T16:15:20.243Z,99299.36
2024-05-09T16:17:23.043Z,99298.15
2024-05-09T16:19:26.241Z,99296.80
2024-05-09T16:21:28.614Z,99296.71
2024-05-09T16:23:31.163Z,99293.40
2024-05-09T16:25:33.681Z,99290.67
2024-05-09T16:27:36.303Z,99292.38
2024-05-09T16:29:38.910Z,99290.85
2024-05-09T16:31:41.419Z,99296.84
2024-05-09T16:33:44.010Z,99295.63
2024-05-09T16:35:46.649Z,99293.11
2024-05-09T16:37:49.531Z,99292.80
2024-05-09T16:39:52.021Z,99296.98
2024-05-09T16:41:55.009Z,99297.73
2024-05-09T16:43:57.840Z,99297.00
2024-05-09T16:46:00.372Z,99297.95
2024-05-09T16:48:03.475Z,99297.80
2024-05-09T16:50:08.644Z,99291.78
2024-05-09T16:52:11.337Z,99299.08
2024-05-09T16:54:13.914Z,99294.89
2024-05-09T16:56:17.350Z,99291.05
2024-05-09T16:58:20.080Z,99290.52
2024-05-09T17:00:34.886Z,99289.71
2024-05-09T17:02:44.132Z,99290.88
2024-05-09T17:04:47.365Z,99289.84
2024-05-09T17:06:50.309Z,99289.56
2024-05-09T17:08:55.460Z,99290.38
2024-05-09T17:10:58.442Z,99289.98
2024-05-09T17:13:01.081Z,99290.62
2024-05-09T17:15:04.117Z,99287.95
2024-05-09T17:17:08.289Z,99283.71
2024-05-09T17:19:10.955Z,99288.53
2024-05-09T17:21:13.587Z,99286.42
2024-05-09T17:23:16.119Z,99283.27
2024-05-09T17:25:18.773Z,99286.40
2024-05-09T17:27:21.503Z,99282.90
2024-05-09T17:29:23.940Z,99275.78
2024-05-09T17:31:26.545Z,99275.11
2024-05-09T17:33:29.151Z,99276.35
2024-05-09T17:35:32.308Z,99273.35
2024-05-09T17:37:36.067Z,99277.16
2024-05-09T17:39:39.516Z,99273.16
2024-05-09T17:41:43.334Z,99274.00
2024-05-09T17:43:46.813Z,99274.49
2024-05-09T17:45:49.490Z,99276.66
2024-05-09T17:47:52.386Z,99275.81
2024-05-09T17:49:55.010Z,99277.34
2024-05-09T17:51:57.496Z,99279.23
2024-05-09T17:53:59.926Z,99277.29
2024-05-09T17:56:02.580Z,99281.33
2024-05-09T17:58:05.934Z,99281.73
2024-05-09T18:00:11.611Z,99283.06
2024-05-09T18:02:17.623Z,99282.94
2024-05-09T18:04:20.373Z,99285.96
2024-05-09T18:06:23.056Z,99284.85
2024-05-09T18:08:25.554Z,99288.79
2024-05-09T18:10:35.440Z,99288.40
2024-05-09T18:12:41.232Z,99289.34
2024-05-09T18:14:44.024Z,99291.13
2024-05-09T18:16:46.658Z,99291.47
2024-05-09T18:18:49.782Z,99291.78
2024-05-09T18:20:52.363Z,99291.83
2024-05-09T18:22:55.076Z,99292.02
2024-05-09T18:24:57.483Z,99294.21
2024-05-09T18:27:01.018Z,99295.73
2024-05-09T18:29:04.258Z,99296.48
2024-05-09T18:31:06.703Z,99295.70
2024-05-09T18:33:10.984Z,99292.68
2024-05-09T18:35:14.608Z,99302.11
2024-05-09T18:37:17.235Z,99299.50
2024-05-09T18:39:19.899Z,99299.38
2024-05-09T18:41:22.404Z,99302.27
2024-05-09T18:43:31.044Z,99304.34
2024-05-09T18:45:38.759Z,99303.02
2024-05-09T18:47:41.987Z,99302.02
2024-05-09T18:49:44.680Z,99307.86
2024-05-09T18:51:47.198Z,99308.46
2024-05-09T18:53:52.164Z,99311.96
2024-05-09T18:55:55.689Z,99313.36
2024-05-09T18:57:58.449Z,99313.48
2024-05-09T19:00:00.875Z,99320.54
2024-05-09T19:02:03.896Z,99320.50
2024-05-09T19:04:07.025Z,99325.29
2024-05-09T19:06:10.584Z,99332.77
2024-05-09T19:08:14.209Z,99334.67
2024-05-09T19:10:22.658Z,99337.54
2024-05-09T19:12:28.921Z,99338.81
2024-05-09T19:14:31.642Z,99343.16
2024-05-09T19:16:35.119Z,99342.52
2024-05-09T19:18:37.885Z,99344.57
2024-05-09T19:20:40.656Z,99350.17
2024-05-09T19:22:43.145Z,99346.77
2024-05-09T19:24:45.603Z,99350.11
2024-05-09T19:26:49.518Z,99355.55
2024-05-09T19:28:52.572Z,99354.80
2024-05-09T19:30:55.280Z,99353.29
2024-05-09T19:32:57.923Z,99355.68
2024-05-09T19:35:00.494Z,99352.77
2024-05-09T19:37:03.740Z,99354.89
2024-05-09T19:39:06.832Z,99357.05
2024-05-09T19:41:09.528Z,99352.69
2024-05-09T19:43:12.199Z,99354.90
2024-05-09T19:45:15.380Z,99356.09
2024-05-09T19:47:17.912Z,99358.86
2024-05-09T19:49:20.460Z,99360.24
2024-05-09T19:51:23.120Z,99362.41
2024-05-09T19:53:25.494Z,99360.67
2024-05-09T19:55:27.932Z,99362.10
2024-05-09T19:57:30.477Z,99364.64
2024-05-09T19:59:33.293Z,99368.01
2024-05-09T20:01:36.846Z,99367.27
2024-05-09T20:03:39.826Z,99364.99
2024-05-09T20:05:46.520Z,99367.23
2024-05-09T20:07:51.369Z,99370.64
2024-05-09T20:09:54.015Z,99373.67
2024-05-09T20:11:59.614Z,99375.23
2024-05-09T20:14:03.657Z,99371.98
2024-05-09T20:16:12.224Z,99373.09
2024-05-09T20:18:18.773Z,99373.15
2024-05-09T20:20:32.142Z,99373.58
2024-05-09T20:22:41.270Z,99374.60
2024-05-09T20:24:45.001Z,99375.19
2024-05-09T20:26:47.548Z,99377.41
2024-05-09T20:28:51.832Z,99377.85
2024-05-09T20:30:55.601Z,99377.05
2024-05-09T20:32:59.697Z,99382.54
2024-05-09T20:35:04.574Z,99382.63
2024-05-09T20:37:09.150Z,99387.09
2024-05-09T20:39:12.883Z,99385.61
2024-05-09T20:41:19.517Z,99386.12
2024-05-09T20:43:22.067Z,99384.09
2024-05-09T20:45:24.652Z,99384.48
2024-05-09T20:47:27.238Z,99382.44
2024-05-09T20:49:29.946Z,99378.64
2024-05-09T20:51:32.650Z,99382.27
2024-05-09T20:53:35.025Z,99383.77
2024-05-09T20:55:38.019Z,99381.65
2024-05-09T20:57:40.679Z,99385.66
2024-05-09T20:59:43.075Z,99382.13
2024-05-09T21:01:49.128Z,99384.39
2024-05-09T21:03:52.077Z,99384.06
2024-05-09T21:05:54.640Z,99386.36
2024-05-09T21:07:57.456Z,99387.27
2024-05-09T21:10:00.319Z,99387.69
2024-05-09T21:12:03.356Z,99388.71
2024-05-09T21:14:05.988Z,99387.46
2024-05-09T21:16:08.488Z,99383.23
2024-05-09T21:18:11.257Z,99384.16
2024-05-09T21:20:17.506Z,99382.42
2024-05-09T21:22:23.380Z,99386.99
2024-05-09T21:24:25.899Z,99380.27
2024-05-09T21:26:29.300Z,99381.77
2024-05-09T21:28:31.762Z,99381.14
2024-05-09T21:30:41.351Z,99382.78
2024-05-09T21:32:45.682Z,99384.45
2024-05-09T21:34:48.249Z,99384.70
2024-05-09T21:36:51.063Z,99383.16
2024-05-09T21:38:53.525Z,99382.63
2024-05-09T21:40:56.313Z,99380.02
2024-05-09T21:42:58.898Z,99377.58
2024-05-09T21:45:01.465Z,99379.89
2024-05-09T21:47:04.089Z,99380.08
2024-05-09T21:49:06.565Z,99381.89
2024-05-09T21:51:15.110Z,99382.02
2024-05-09T21:53:17.933Z,99381.00
2024-05-09T21:55:20.354Z,99381.13
2024-05-09T21:57:23.168Z,99380.70
2024-05-09T21:59:25.690Z,99379.06
2024-05-09T22:01:28.778Z,99382.92
2024-05-09T22:03:32.035Z,99377.75
2024-05-09T22:05:34.906Z,99378.34
2024-05-09T22:07:37.948Z,99382.52
2024-05-09T22:09:45.492Z,99383.52
2024-05-09T22:11:51.421Z,99384.64
2024-05-09T22:13:54.936Z,99380.05
2024-05-09T22:15:57.362Z,99378.55
2024-05-09T22:18:00.003Z,99378.77
2024-05-09T22:20:04.564Z,99383.08
2024-05-09T22:22:09.862Z,99384.85
2024-05-09T22:24:12.231Z,99385.59
2024-05-09T22:26:14.686Z,99383.85
2024-05-09T22:28:17.275Z,99384.42
2024-05-09T22:30:24.190Z,99384.61
2024-05-09T22:32:34.556Z,99385.01
2024-05-09T22:34:37.208Z,99383.71
2024-05-09T22:36:40.026Z,99379.25
2024-05-09T22:38:42.550Z,99378.20
2024-05-09T22:40:48.557Z,99375.30
2024-05-09T22:42:52.704Z,99374.05
2024-05-09T22:44:55.055Z,99373.49
2024-05-09T22:46:57.815Z,99377.64
2024-05-09T22:49:00.314Z,99377.60
2024-05-09T22:51:03.653Z,99378.66
2024-05-09T22:53:06.054Z,99378.59
2024-05-09T22:55:08.683Z,99381.09
2024-05-09T22:57:11.060Z,99381.12
2024-05-09T22:59:13.457Z,99384.40
2024-05-09T23:01:16.332Z,99381.34
2024-05-09T23:03:21.229Z,99376.95
2024-05-09T23:05:24.857Z,99383.40
2024-05-09T23:07:27.451Z,99379.09
2024-05-09T23:09:29.890Z,99382.77
2024-05-09T23:11:32.355Z,99382.25
2024-05-09T23:13:35.204Z,99384.13
2024-05-09T23:15:38.488Z,99381.78
2024-05-09T23:17:41.517Z,99383.91
2024-05-09T23:19:44.078Z,99380.79
2024-05-09T23:21:46.578Z,99380.19
2024-05-09T23:23:49.119Z,99380.02
2024-05-09T23:25:52.728Z,99377.95
2024-05-09T23:27:55.237Z,99377.66
2024-05-09T23:29:57.767Z,99380.48
2024-05-09T23:32:00.140Z,99382.44
2024-05-09T23:34:04.797Z,99381.54
2024-05-09T23:36:07.783Z,99384.03
2024-05-09T23:38:10.399Z,99382.22
2024-05-09T23:40:18.491Z,99379.20
2024-05-09T23:42:21.726Z,99378.18
2024-05-09T23:44:24.102Z,99380.12
2024-05-09T23:46:26.596Z,99377.69
2024-05-09T23:48:29.082Z,99377.98
2024-05-09T23:50:36.082Z,99374.00
2024-05-09T23:52:40.759Z,99371.02
2024-05-09T23:54:43.201Z,99368.08
2024-05-09T23:56:45.683Z,99366.63
2024-05-09T23:58:48.290Z,99364.69
